Data for 12/14/2009

Time Sea-Level Adjusted Pressure Absolute Pressure Temperature Relative Humidity Dew Point   
(mb) (inHg) (mb) (inHg) (C) (F) (%) (C) (F)
00:05 1009 29.8 839 24.78 -17.1 1.2 84 -19.1 -2.5
00:10 1010 29.83 839 24.78 -17.1 1.1 84 -19.2 -2.6
00:15 1010 29.83 839 24.78 -17.2 1 85 -19.2 -2.5
00:20 1010 29.83 839 24.78 -16.9 1.6 82 -19.2 -2.6
00:25 1010 29.83 839 24.78 -17.1 1.3 84 -19.1 -2.4
00:30 1010 29.83 839 24.78 -17.2 1.1 83 -19.4 -3
00:35 1010 29.83 839 24.78 -17.6 0.2 85 -19.6 -3.4
00:40 1010 29.83 839 24.78 -17.6 0.3 85 -19.6 -3.2
00:45 1010 29.83 839 24.78 -17.5 0.4 85 -19.5 -3.2
00:50 1010 29.83 839 24.78 -17.8 0 85 -19.7 -3.5
00:55 1010 29.83 839 24.78 -17.8 -0.1 87 -19.5 -3.2
01:00 1010 29.83 839 24.78 -17.4 0.6 85 -19.3 -2.8
01:05 1010 29.83 839 24.78 -17.1 1.1 83 -19.3 -2.8
01:10 1010 29.83 839 24.78 -17.2 1.1 84 -19.3 -2.7
01:15 1010 29.83 839 24.78 -16.9 1.5 83 -19.2 -2.5
01:20 1010 29.83 840 24.81 -17 1.4 83 -19.2 -2.6
01:25 1010 29.83 840 24.81 -17 1.4 82 -19.3 -2.8
01:30 1011 29.85 840 24.81 -17 1.4 83 -19.2 -2.6
01:35 1010 29.83 840 24.81 -16.9 1.6 82 -19.3 -2.7
01:40 1011 29.85 840 24.81 -16.9 1.5 81 -19.4 -3
01:45 1011 29.85 840 24.81 -17.1 1.3 82 -19.4 -2.9
01:50 1011 29.85 840 24.81 -17.1 1.3 82 -19.4 -2.9
01:55 1011 29.85 840 24.81 -17.2 1 81 -19.7 -3.5
02:00 1011 29.85 840 24.81 -17.9 -0.2 83 -20.1 -4.2
02:05 1011 29.85 840 24.81 -18.2 -0.8 86 -20.1 -4.1
02:10 1011 29.85 840 24.81 -18.2 -0.8 83 -20.4 -4.6
02:15 1011 29.85 840 24.81 -18.3 -0.9 83 -20.6 -5
02:20 1011 29.85 840 24.81 -18.8 -1.8 85 -20.7 -5.3
02:25 1011 29.85 841 24.83 -18.7 -1.7 86 -20.6 -5
02:30 1011 29.85 841 24.83 -18.3 -1 83 -20.6 -5
02:35 1011 29.85 841 24.83 -18.6 -1.5 84 -20.7 -5.2
02:40 1012 29.88 841 24.83 -18.9 -1.9 84 -21 -5.7
02:45 1012 29.88 841 24.83 -19 -2.1 84 -21.1 -6
02:50 1012 29.88 841 24.83 -19.2 -2.6 84 -21.3 -6.3
02:55 1011 29.85 841 24.83 -19.4 -2.9 85 -21.4 -6.5
03:00 1012 29.88 841 24.83 -19.3 -2.8 84 -21.4 -6.4
03:05 1012 29.88 841 24.83 -19.3 -2.7 84 -21.3 -6.4
03:10 1012 29.88 841 24.83 -19.2 -2.6 84 -21.2 -6.2
03:15 1012 29.88 841 24.83 -19 -2.2 83 -21.2 -6.2
03:20 1012 29.88 841 24.83 -19 -2.3 82 -21.3 -6.4
03:25 1012 29.88 841 24.83 -19.4 -2.9 83 -21.6 -6.8
03:30 1012 29.88 841 24.83 -19.8 -3.6 85 -21.7 -7.1
03:35 1011 29.85 841 24.83 -19.8 -3.7 84 -21.8 -7.3
03:40 1011 29.85 841 24.83 -19.8 -3.6 83 -22 -7.5
03:45 1011 29.85 841 24.83 -19.7 -3.5 84 -21.8 -7.3
03:50 1011 29.85 841 24.83 -19.7 -3.4 83 -21.8 -7.2
03:55 1011 29.85 841 24.83 -19.6 -3.3 84 -21.7 -7.1
04:00 1011 29.85 840 24.81 -19.6 -3.3 83 -21.8 -7.3
04:05 1011 29.85 840 24.81 -19.8 -3.6 84 -21.8 -7.3
04:10 1011 29.85 840 24.81 -19.7 -3.4 83 -21.8 -7.2
04:15 1011 29.85 840 24.81 -19.6 -3.2 84 -21.6 -6.9
04:20 1011 29.85 840 24.81 -19.5 -3 83 -21.6 -6.9
04:25 1011 29.85 840 24.81 -19.4 -3 84 -21.5 -6.7
04:30 1011 29.85 840 24.81 -19.2 -2.6 84 -21.3 -6.3
04:35 1011 29.85 840 24.81 -19 -2.1 82 -21.3 -6.4
04:40 1011 29.85 841 24.83 -18.8 -1.9 81 -21.3 -6.3
04:45 1011 29.85 841 24.83 -18.7 -1.7 81 -21.2 -6.1
04:50 1012 29.88 841 24.83 -18.7 -1.6 80 -21.3 -6.3
04:55 1012 29.88 841 24.83 -18.8 -1.8 80 -21.4 -6.5
05:00 1011 29.85 841 24.83 -19 -2.2 81 -21.5 -6.6
05:05 1011 29.85 841 24.83 -19.3 -2.8 82 -21.7 -7.1
05:10 1011 29.85 841 24.83 -19.6 -3.3 83 -21.8 -7.3
05:15 1011 29.85 840 24.81 -19.6 -3.2 84 -21.6 -6.9
05:20 1011 29.85 840 24.81 -19.5 -3 84 -21.5 -6.7
05:25 1011 29.85 840 24.81 -19.3 -2.8 84 -21.3 -6.4
05:30 1011 29.85 840 24.81 -19.2 -2.5 85 -21.2 -6.1
05:35 1011 29.85 840 24.81 -19.1 -2.4 84 -21.2 -6.1
05:40 1011 29.85 840 24.81 -19.2 -2.6 82 -21.5 -6.7
05:45 1011 29.85 840 24.81 -19.4 -3 83 -21.6 -6.9
05:50 1010 29.83 840 24.81 -19.4 -2.9 84 -21.4 -6.6
05:55 1010 29.83 839 24.78 -19.2 -2.5 84 -21.3 -6.3
06:00 1010 29.83 839 24.78 -18.9 -2 84 -20.9 -5.7
06:05 1010 29.83 839 24.78 -18.4 -1.1 86 -20.2 -4.4
06:10 1010 29.83 839 24.78 -17.3 0.9 85 -19.2 -2.6
06:15 1010 29.83 839 24.78 -16.4 2.4 84 -18.6 -1.5
06:20 1010 29.83 839 24.78 -16.2 2.8 87 -17.9 -0.2
06:25 1010 29.83 839 24.78 -15.3 4.6 86 -17.1 1.1
06:30 1010 29.83 839 24.78 -14.4 6 84 -16.6 2.1
06:35 1010 29.83 839 24.78 -14 6.7 82 -16.4 2.4
06:40 1010 29.83 839 24.78 -13.9 7 80 -16.6 2.1
06:45 1010 29.83 840 24.81 -14 6.7 78 -17.1 1.2
06:50 1010 29.83 840 24.81 -14.9 5.1 78 -17.9 -0.3
06:55 1011 29.85 840 24.81 -16 3.3 77 -19.1 -2.3
07:00 1011 29.85 840 24.81 -17.2 1.1 77 -20.3 -4.5
07:05 1011 29.85 840 24.81 -18 -0.4 78 -20.9 -5.6
07:10 1011 29.85 840 24.81 -18.5 -1.2 78 -21.4 -6.4
07:15 1011 29.85 840 24.81 -18.9 -2 80 -21.5 -6.7
07:20 1011 29.85 840 24.81 -19.1 -2.3 81 -21.5 -6.7
07:25 1011 29.85 840 24.81 -19.1 -2.3 82 -21.4 -6.6
07:30 1011 29.85 840 24.81 -19.2 -2.5 83 -21.3 -6.3
07:35 1011 29.85 840 24.81 -19.1 -2.4 83 -21.4 -6.5
07:40 1011 29.85 840 24.81 -19.2 -2.6 84 -21.3 -6.4
07:45 1011 29.85 840 24.81 -19 -2.2 83 -21.3 -6.3
07:50 1011 29.85 840 24.81 -19.1 -2.3 83 -21.2 -6.2
07:55 1011 29.85 840 24.81 -19 -2.2 83 -21.2 -6.1
08:00 1011 29.85 840 24.81 -19 -2.1 84 -21 -5.8
08:05 1011 29.85 840 24.81 -18.9 -2.1 84 -21 -5.8
08:10 1011 29.85 840 24.81 -18.9 -2 84 -20.9 -5.7
08:15 1011 29.85 841 24.83 -18.7 -1.6 84 -20.8 -5.4
08:20 1011 29.85 840 24.81 -18.5 -1.2 84 -20.6 -5.1
08:25 1011 29.85 841 24.83 -18.1 -0.6 83 -20.3 -4.5
08:30 1011 29.85 840 24.81 -17.7 0.1 85 -19.7 -3.5
08:35 1011 29.85 841 24.83 -17.1 1.3 84 -19.1 -2.5
08:40 1012 29.88 841 24.83 -16.2 2.8 84 -18.3 -0.9
08:45 1012 29.88 841 24.83 -15.4 4.4 81 -17.9 -0.2
08:50 1012 29.88 841 24.83 -15.2 4.6 80 -18 -0.4
08:55 1012 29.88 841 24.83 -15.7 3.8 80 -18.3 -1
09:00 1012 29.88 841 24.83 -15.7 3.7 80 -18.4 -1.1
09:05 1012 29.88 841 24.83 -15.8 3.5 81 -18.3 -1
09:10 1012 29.88 841 24.83 -15.7 3.7 81 -18.2 -0.8
09:15 1012 29.88 841 24.83 -15.4 4.4 84 -17.5 0.4
09:20 1012 29.88 841 24.83 -14.7 5.5 80 -17.4 0.7
09:25 1012 29.88 841 24.83 -14.9 5.3 84 -16.9 1.5
09:30 1012 29.88 841 24.83 -14.1 6.7 80 -16.9 1.6
09:35 1012 29.88 841 24.83 -13.3 8.1 77 -16.5 2.3
09:40 1012 29.88 841 24.83 -12.7 9.1 76 -16.2 2.9
09:45 1012 29.88 842 24.86 -12.5 9.5 75 -16.1 3.1
09:50 1013 29.91 842 24.86 -12.6 9.3 73 -16.4 2.4
09:55 1013 29.91 842 24.86 -12.9 8.8 75 -16.5 2.2
10:00 1013 29.91 842 24.86 -13.4 7.9 76 -16.8 1.8
10:05 1013 29.91 842 24.86 -13.4 7.9 77 -16.6 2.1
10:10 1013 29.91 842 24.86 -13.2 8.3 77 -16.3 2.6
10:15 1013 29.91 842 24.86 -12.6 9.4 75 -16.2 2.9
10:20 1013 29.91 842 24.86 -12 10.4 73 -15.9 3.4
10:25 1013 29.91 842 24.86 -11.6 11.2 70 -16 3.2
10:30 1013 29.91 842 24.86 -11.7 10.9 73 -15.7 3.8
10:35 1013 29.91 842 24.86 -11.5 11.3 70 -15.9 3.3
10:40 1013 29.91 842 24.86 -11 12.2 68 -15.9 3.5
10:45 1013 29.91 842 24.86 -10.6 12.9 68 -15.3 4.4
10:50 1013 29.91 842 24.86 -9.7 14.5 64 -15.3 4.5
10:55 1013 29.91 842 24.86 -9.3 15.2 64 -15 5.1
11:00 1013 29.91 842 24.86 -9.1 15.7 61 -15.2 4.6
11:05 1013 29.91 842 24.86 -8.4 17 60 -14.9 5.2
11:10 1013 29.91 842 24.86 -8.4 16.8 58 -15.2 4.6
11:15 1013 29.91 843 24.89 -8.3 17.1 60 -14.7 5.5
11:20 1013 29.91 843 24.89 -8.3 17 59 -15 5.1
11:25 1013 29.91 843 24.89 -8.8 16.2 60 -15.2 4.6
11:30 1014 29.94 843 24.89 -9.8 14.4 61 -15.9 3.4
11:35 1014 29.94 843 24.89 -10.3 13.6 59 -16.9 1.6
11:40 1014 29.94 843 24.89 -11.4 11.5 60 -17.8 0
11:45 1014 29.94 843 24.89 -12.6 9.3 67 -17.5 0.5
11:50 1014 29.94 843 24.89 -13 8.6 66 -18.2 -0.7
11:55 1014 29.94 843 24.89 -12.9 8.9 63 -18.6 -1.5
12:00 1014 29.94 843 24.89 -13 8.7 65 -18.1 -0.7
12:05 1014 29.94 843 24.89 -13.5 7.7 64 -19 -2.2
12:10 1014 29.94 843 24.89 -13.8 7.2 64 -19.2 -2.5
12:15 1014 29.94 844 24.92 -13.7 7.3 65 -19 -2.1
12:20 1014 29.94 844 24.92 -14 6.8 66 -19.1 -2.4
12:25 1014 29.94 844 24.92 -13.9 7.1 65 -19.1 -2.4
12:30 1014 29.94 844 24.92 -14 6.7 66 -19.1 -2.5
12:35 1015 29.97 844 24.92 -14.1 6.6 66 -19.1 -2.3
12:40 1015 29.97 844 24.92 -13.8 7.2 65 -19 -2.1
12:45 1015 29.97 844 24.92 -14.1 6.7 69 -18.7 -1.6
12:50 1015 29.97 844 24.92 -14.1 6.6 66 -19.2 -2.6
12:55 1015 29.97 844 24.92 -14.1 6.6 69 -18.7 -1.6
13:00 1015 29.97 844 24.92 -13.9 7 68 -18.6 -1.4
13:05 1015 29.97 844 24.92 -14 6.9 68 -18.7 -1.6
13:10 1015 29.97 844 24.92 -14.1 6.6 69 -18.6 -1.5
13:15 1015 29.97 844 24.92 -13.8 7.2 70 -18.2 -0.7
13:20 1015 29.97 844 24.92 -13.2 8.2 67 -18.1 -0.6
13:25 1015 29.97 844 24.92 -13.5 7.7 68 -18.2 -0.7
13:30 1014 29.94 844 24.92 -13.5 7.7 70 -17.9 -0.2
13:35 1015 29.97 844 24.92 -13.3 8.1 71 -17.5 0.5
13:40 1015 29.97 844 24.92 -12.6 9.4 70 -16.9 1.5
13:45 1015 29.97 844 24.92 -11.9 10.7 67 -16.8 1.8
13:50 1015 29.97 844 24.92 -11.5 11.3 68 -16.3 2.7
13:55 1015 29.97 844 24.92 -11.3 11.6 67 -16.3 2.7
14:00 1015 29.97 844 24.92 -11.9 10.5 70 -16.3 2.7
14:05 1015 29.97 844 24.92 -11.7 10.9 68 -16.6 2.2
14:10 1015 29.97 844 24.92 -11.8 10.8 67 -16.7 2
14:15 1015 29.97 844 24.92 -11.9 10.6 68 -16.7 2
14:20 1015 29.97 844 24.92 -11.9 10.7 67 -16.7 1.9
14:25 1015 29.97 844 24.92 -12.2 10 70 -16.7 1.9
14:30 1015 29.97 844 24.92 -12.2 10 68 -17 1.4
14:35 1015 29.97 844 24.92 -12.3 10 70 -16.7 1.9
14:40 1015 29.97 845 24.95 -12 10.3 69 -16.6 2.1
14:45 1015 29.97 844 24.92 -12.2 10 70 -16.7 1.9
14:50 1015 29.97 845 24.95 -12.3 9.8 68 -17.1 1.2
14:55 1015 29.97 845 24.95 -12.4 9.7 68 -17.1 1.2
15:00 1015 29.97 845 24.95 -13.1 8.5 69 -17.6 0.4
15:05 1015 29.97 845 24.95 -13.1 8.5 71 -17.4 0.8
15:10 1015 29.97 845 24.95 -12.8 8.9 69 -17.4 0.6
15:15 1015 29.97 845 24.95 -13.4 7.9 71 -17.5 0.5
15:20 1016 30 845 24.95 -13.1 8.4 70 -17.6 0.4
15:25 1015 29.97 845 24.95 -13.2 8.3 71 -17.3 0.8
15:30 1015 29.97 845 24.95 -13.2 8.3 71 -17.4 0.7
15:35 1016 30 845 24.95 -13.1 8.4 71 -17.3 0.9
15:40 1016 30 845 24.95 -13.3 8 72 -17.4 0.6
15:45 1016 30 845 24.95 -13.5 7.7 73 -17.4 0.6
15:50 1016 30 845 24.95 -13.7 7.3 73 -17.6 0.3
15:55 1016 30 845 24.95 -13.7 7.3 73 -17.6 0.4
16:00 1016 30 845 24.95 -13.8 7.2 75 -17.3 0.8
16:05 1016 30 845 24.95 -13.5 7.8 73 -17.3 0.8
16:10 1016 30 845 24.95 -13.7 7.4 75 -17.3 0.9
16:15 1016 30 845 24.95 -13.8 7.1 76 -17.2 1
16:20 1016 30 845 24.95 -13.5 7.7 73 -17.3 0.9
16:25 1016 30 845 24.95 -13.3 8.1 72 -17.4 0.8
16:30 1016 30 845 24.95 -13.3 8.2 71 -17.4 0.6
16:35 1016 30 845 24.95 -13.2 8.2 73 -17.1 1.2
16:40 1016 30 845 24.95 -13.5 7.8 74 -17.2 1
16:45 1016 30 845 24.95 -13.8 7.3 74 -17.4 0.7
16:50 1016 30 845 24.95 -14.2 6.5 75 -17.7 0.1
16:55 1016 30 845 24.95 -14.4 6 76 -17.8 -0.1
17:00 1016 30 845 24.95 -14.5 5.9 78 -17.6 0.3
17:05 1016 30 846 24.98 -14.6 5.7 78 -17.6 0.2
17:10 1016 30 846 24.98 -14.9 5.3 79 -17.7 0.1
17:15 1016 30 846 24.98 -14.8 5.4 79 -17.6 0.2
17:20 1016 30 846 24.98 -14.7 5.5 80 -17.5 0.6
17:25 1017 30.03 846 24.98 -14.6 5.7 78 -17.6 0.4
17:30 1016 30 846 24.98 -14.7 5.6 78 -17.7 0.1
17:35 1017 30.03 846 24.98 -14.7 5.5 77 -17.9 -0.2
17:40 1017 30.03 846 24.98 -14.6 5.7 78 -17.6 0.2
17:45 1016 30 846 24.98 -14.4 6 78 -17.5 0.6
17:50 1016 30 846 24.98 -14.3 6.2 79 -17.3 0.9
17:55 1016 30 846 24.98 -14.3 6.4 79 -17.2 1.1
18:00 1016 30 846 24.98 -14.1 6.7 79 -17 1.5
18:05 1016 30 846 24.98 -13.9 7 79 -16.9 1.6
18:10 1016 30 846 24.98 -13.8 7.3 79 -16.7 2
18:15 1016 30 846 24.98 -13.3 8.1 79 -16.2 2.9
18:20 1016 30 846 24.98 -12.7 9.2 77 -15.9 3.4
18:25 1016 30 846 24.98 -12.5 9.6 77 -15.7 3.8
18:30 1016 30 846 24.98 -12.2 10.1 76 -15.5 4
18:35 1016 30 846 24.98 -12.1 10.2 76 -15.5 4
18:40 1016 30 846 24.98 -12.4 9.7 77 -15.6 3.9
18:45 1016 30 846 24.98 -12.8 9 80 -15.5 4.1
18:50 1016 30 846 24.98 -12.7 9.1 77 -15.9 3.4
18:55 1016 30 846 24.98 -13.1 8.4 78 -16.2 2.9
19:00 1016 30 846 24.98 -13.3 8.1 77 -16.5 2.3
19:05 1016 30 846 24.98 -13.4 7.9 74 -17.1 1.2
19:10 1016 30 846 24.98 -13.9 7 76 -17.3 0.9
19:15 1016 30 846 24.98 -14 6.8 78 -17 1.4
19:20 1016 30 846 24.98 -13.9 6.9 79 -16.9 1.6
19:25 1016 30 846 24.98 -14 6.8 79 -16.8 1.7
19:30 1016 30 846 24.98 -13.7 7.3 79 -16.6 2.1
19:35 1016 30 846 24.98 -13.6 7.6 81 -16.2 2.8
19:40 1016 30 846 24.98 -13.1 8.4 79 -16 3.2
19:45 1016 30 846 24.98 -12.9 8.8 79 -15.8 3.5
19:50 1016 30 846 24.98 -12.9 8.8 79 -15.8 3.6
19:55 1016 30 846 24.98 -12.7 9.1 81 -15.3 4.4
20:00 1016 30 846 24.98 -12.3 9.9 79 -15.2 4.6
20:05 1016 30 846 24.98 -12.2 10.1 79 -15.1 4.8
20:10 1016 30 846 24.98 -11.8 10.7 80 -14.6 5.6
20:15 1017 30.03 846 24.98 -11.4 11.4 81 -14.1 6.7
20:20 1017 30.03 846 24.98 -11.4 11.5 79 -14.4 6.1
20:25 1017 30.03 846 24.98 -11.5 11.2 79 -14.4 6.1
20:30 1017 30.03 846 24.98 -11.7 11 79 -14.5 5.8
20:35 1017 30.03 846 24.98 -11.8 10.7 81 -14.5 5.9
20:40 1017 30.03 846 24.98 -11.9 10.6 82 -14.4 6.1
20:45 1017 30.03 846 24.98 -11.5 11.2 80 -14.4 6.1
20:50 1017 30.03 846 24.98 -11.4 11.5 79 -14.3 6.3
20:55 1017 30.03 846 24.98 -11.3 11.7 81 -13.9 6.9
21:00 1017 30.03 846 24.98 -11 12.3 81 -13.7 7.4
21:05 1017 30.03 846 24.98 -10.9 12.4 80 -13.7 7.3
21:10 1017 30.03 846 24.98 -10.2 13.6 78 -13.4 7.9
21:15 1017 30.03 846 24.98 -9.8 14.5 76 -13.2 8.3
21:20 1017 30.03 846 24.98 -8.9 15.9 72 -13.2 8.3
21:25 1017 30.03 846 24.98 -8.2 17.2 69 -12.9 8.7
21:30 1017 30.03 846 24.98 -8 17.7 67 -13 8.6
21:35 1017 30.03 846 24.98 -7.3 18.9 65 -12.8 8.9
21:40 1017 30.03 846 24.98 -6.3 20.7 59 -13 8.6
21:45 1017 30.03 846 24.98 -5.8 21.5 61 -12.2 10
21:50 1017 30.03 846 24.98 -6 21.3 64 -11.7 10.9
21:55 1017 30.03 846 24.98 -6.7 19.9 63 -12.7 9.2
22:00 1017 30.03 846 24.98 -6.5 20.3 64 -12.2 10.1
22:05 1017 30.03 846 24.98 -6.6 20.1 63 -12.6 9.4
22:10 1017 30.03 847 25.01 -6.1 21 61 -12.6 9.4
22:15 1017 30.03 847 25.01 -5 22.9 56 -12.6 9.3
22:20 1017 30.03 847 25.01 -4.3 24.3 55 -12.1 10.2
22:25 1018 30.06 847 25.01 -4.1 24.6 54 -12.1 10.2
22:30 1018 30.06 847 25.01 -4.1 24.7 55 -11.7 10.9
22:35 1018 30.06 847 25.01 -4.9 23.2 60 -11.4 11.4
22:40 1018 30.06 847 25.01 -5.4 22.2 61 -11.8 10.8
22:45 1018 30.06 847 25.01 -5.6 21.9 61 -11.9 10.6
22:50 1018 30.06 847 25.01 -5.5 22.1 62 -11.7 10.9
22:55 1018 30.06 847 25.01 -5.4 22.3 59 -12.1 10.2
23:00 1018 30.06 847 25.01 -5.2 22.7 59 -11.9 10.5
23:05 1018 30.06 847 25.01 -5.2 22.7 61 -11.5 11.3
23:10 1018 30.06 847 25.01 -5.2 22.7 59 -11.9 10.5
23:15 1018 30.06 847 25.01 -5.2 22.7 58 -12.3 9.9
23:20 1017 30.03 847 25.01 -5.1 22.8 58 -12 10.3
23:25 1017 30.03 847 25.01 -5.5 22.2 59 -12.2 10
23:30 1017 30.03 847 25.01 -5.6 21.9 62 -11.8 10.8
23:35 1017 30.03 846 24.98 -6 21.1 61 -12.3 9.8
23:40 1017 30.03 846 24.98 -6 21.3 61 -12.3 9.8
23:45 1017 30.03 846 24.98 -5.8 21.5 61 -12.1 10.1
23:50 1017 30.03 846 24.98 -5.9 21.5 62 -12.1 10.3
23:55 1017 30.03 846 24.98 -5.8 21.5 61 -12.2 10
24:00 1017 30.03 846 24.98 -5.7 21.7 61 -12.2 10.1